Finest — WCW8374 — position and weather

sailwx.info

Track history (hours):
 
Tides and Currents Weather Stations Pressure Air Temp Water Temp Dewpoint Dewpoint Depression Visibility Wind Speed Wind Dir Waves Ship Positions

Finest

Owner: NEW YORK FAST FERRY SERVICES INC, MAMARONECK, NY. More information available from US FCC via Universal Licensing System and Coast Guard Vessel Documentation Center.

Last reported at 2015-Apr-27 22:06 UTC. Time now 2015-Apr-28 05:16 UTC.
Position N 40°26' W 074°05'.

Length 38 m.

Type: High speed craft. MMSI: 366990590.

Date/timePositionNaut miles runAvg speedWind from/ knotsBaromVisibWave heightAir tempDewpointWater temp
2015-Apr-27 22:06N 40°26' W 074°05'1629.7
2015-Apr-27 21:33N 40°42' W 074°00'10 7.3
2015-Apr-27 20:08N 40°32' W 074°03'1119.4
2015-Apr-27 19:33N 40°43' W 074°01'3 3.4
2015-Apr-27 18:33N 40°46' W 074°01'0 0.0
2015-Apr-27 17:33N 40°46' W 074°01'0 0.0
2015-Apr-27 16:33N 40°46' W 074°01'0 0.0
2015-Apr-27 15:33N 40°46' W 074°01'1 0.8
2015-Apr-27 14:34N 40°45' W 074°01'1412.0
2015-Apr-27 13:22N 40°31' W 074°03'1316.4
2015-Apr-27 12:34N 40°44' W 074°01'1 0.7
2015-Apr-27 10:34N 40°43' W 074°01'  
2015-Apr-24 22:33N 40°34' W 074°03'4 4.0
2015-Apr-24 21:32N 40°31' W 074°04'1211.9
2015-Apr-24 20:34N 40°42' W 074°00'5 4.6
2015-Apr-24 19:34N 40°46' W 074°01'0 0.0
2015-Apr-24 18:34N 40°46' W 074°01'0 0.0
2015-Apr-24 17:33N 40°46' W 074°01'0 0.0
2015-Apr-24 16:33N 40°46' W 074°01'0 0.0
2015-Apr-24 15:34N 40°46' W 074°01'0 0.0
2015-Apr-24 14:34N 40°46' W 074°01'0 0.1
2015-Apr-24 13:33N 40°46' W 074°01'7 7.1
2015-Apr-24 12:33N 40°39' W 074°02'3 3.3
2015-Apr-24 11:34N 40°36' W 074°03'0 0.0
2015-Apr-23 22:33N 40°36' W 074°03'5 5.0
2015-Apr-23 21:31N 40°31' W 074°04'1111.4
2015-Apr-23 20:34N 40°42' W 074°00'5 4.7
2015-Apr-23 19:34N 40°46' W 074°01'0 0.0
2015-Apr-23 18:33N 40°46' W 074°01'0 0.0
2015-Apr-23 17:34N 40°46' W 074°01'0 0.0
2015-Apr-23 16:33N 40°46' W 074°01'0 0.0
2015-Apr-23 15:34N 40°46' W 074°01'0 0.0
2015-Apr-23 14:33N 40°46' W 074°01'0 0.0
2015-Apr-23 13:33N 40°46' W 074°01'8 7.8
2015-Apr-23 12:33N 40°39' W 074°02'3 2.9
2015-Apr-23 11:34N 40°36' W 074°03'2 0.1
2015-Apr-22 22:34N 40°37' W 074°03'11 9.4
2015-Apr-22 21:22N 40°26' W 074°05'1518.9
2015-Apr-22 20:33N 40°41' W 074°01'5 5.2
2015-Apr-22 19:34N 40°46' W 074°01'0 0.0
2015-Apr-22 18:33N 40°46' W 074°01'0 0.0
2015-Apr-22 17:34N 40°46' W 074°01'0 0.0
2015-Apr-22 16:33N 40°46' W 074°01'0 0.0
2015-Apr-22 15:33N 40°46' W 074°01'0 0.0
2015-Apr-22 14:33N 40°46' W 074°01'0 0.0
2015-Apr-22 13:33N 40°46' W 074°01'1010.0
2015-Apr-22 12:34N 40°36' W 074°03'2 2.1
2015-Apr-22 11:34N 40°39' W 074°02'2 0.1
2015-Apr-21 22:34N 40°37' W 074°03'7 6.8
2015-Apr-21 21:31N 40°30' W 074°04'1212.9
2015-Apr-21 20:34N 40°42' W 074°01'4 4.4
2015-Apr-21 19:33N 40°46' W 074°01'0 0.0
2015-Apr-21 18:33N 40°46' W 074°01'0 0.0
2015-Apr-21 17:33N 40°46' W 074°01'0 0.0
2015-Apr-21 16:33N 40°46' W 074°01'0 0.0
2015-Apr-21 15:33N 40°46' W 074°01'3 3.5
2015-Apr-21 14:33N 40°43' W 074°02'12 9.2
2015-Apr-21 13:18N 40°31' W 074°03'811.1
2015-Apr-21 12:34N 40°39' W 074°02'4 3.6
2015-Apr-21 11:33N 40°36' W 074°03'1 0.1
2015-Apr-20 22:33N 40°37' W 074°03'8 7.6
2015-Apr-20 21:29N 40°29' W 074°04'1313.6
2015-Apr-20 20:34N 40°42' W 074°00'5 4.7
2015-Apr-20 19:33N 40°46' W 074°01'0 0.0
2015-Apr-20 18:33N 40°46' W 074°01'0 0.0
2015-Apr-20 17:33N 40°46' W 074°01'0 0.0
2015-Apr-20 16:33N 40°46' W 074°01'0 0.0
2015-Apr-20 15:33N 40°46' W 074°01'0 0.0
2015-Apr-20 14:33N 40°46' W 074°01'0 0.0
2015-Apr-20 13:33N 40°46' W 074°01'1513.7
2015-Apr-20 12:27N 40°31' W 074°04'7 7.6
2015-Apr-20 11:34N 40°38' W 074°03'  
2015-Apr-17 22:33N 40°35' W 074°03'  
Track history (hours):
 
Tides and Currents Weather Stations Pressure Air Temp Water Temp Dewpoint Dewpoint Depression Visibility Wind Speed Wind Dir Waves Ship Positions

Finest

Owner: NEW YORK FAST FERRY SERVICES INC, MAMARONECK, NY. More information available from US FCC via Universal Licensing System and Coast Guard Vessel Documentation Center.

Last reported at 2015-Apr-27 22:06 UTC. Time now 2015-Apr-28 05:16 UTC.
Position N 40°26' W 074°05'.

Length 38 m.

Type: High speed craft. MMSI: 366990590.

Date/timePositionNaut miles runAvg speedWind from/ knotsBaromVisibWave heightAir tempDewpointWater temp
2015-Apr-27 22:06N 40°26' W 074°05'1629.7
2015-Apr-27 21:33N 40°42' W 074°00'10 7.3
2015-Apr-27 20:08N 40°32' W 074°03'1119.4
2015-Apr-27 19:33N 40°43' W 074°01'3 3.4
2015-Apr-27 18:33N 40°46' W 074°01'0 0.0
2015-Apr-27 17:33N 40°46' W 074°01'0 0.0
2015-Apr-27 16:33N 40°46' W 074°01'0 0.0
2015-Apr-27 15:33N 40°46' W 074°01'1 0.8
2015-Apr-27 14:34N 40°45' W 074°01'1412.0
2015-Apr-27 13:22N 40°31' W 074°03'1316.4
2015-Apr-27 12:34N 40°44' W 074°01'1 0.7
2015-Apr-27 10:34N 40°43' W 074°01'  
2015-Apr-24 22:33N 40°34' W 074°03'4 4.0
2015-Apr-24 21:32N 40°31' W 074°04'1211.9
2015-Apr-24 20:34N 40°42' W 074°00'5 4.6
2015-Apr-24 19:34N 40°46' W 074°01'0 0.0
2015-Apr-24 18:34N 40°46' W 074°01'0 0.0
2015-Apr-24 17:33N 40°46' W 074°01'0 0.0
2015-Apr-24 16:33N 40°46' W 074°01'0 0.0
2015-Apr-24 15:34N 40°46' W 074°01'0 0.0
2015-Apr-24 14:34N 40°46' W 074°01'0 0.1
2015-Apr-24 13:33N 40°46' W 074°01'7 7.1
2015-Apr-24 12:33N 40°39' W 074°02'3 3.3
2015-Apr-24 11:34N 40°36' W 074°03'0 0.0
2015-Apr-23 22:33N 40°36' W 074°03'5 5.0
2015-Apr-23 21:31N 40°31' W 074°04'1111.4
2015-Apr-23 20:34N 40°42' W 074°00'5 4.7
2015-Apr-23 19:34N 40°46' W 074°01'0 0.0
2015-Apr-23 18:33N 40°46' W 074°01'0 0.0
2015-Apr-23 17:34N 40°46' W 074°01'0 0.0
2015-Apr-23 16:33N 40°46' W 074°01'0 0.0
2015-Apr-23 15:34N 40°46' W 074°01'0 0.0
2015-Apr-23 14:33N 40°46' W 074°01'0 0.0
2015-Apr-23 13:33N 40°46' W 074°01'8 7.8
2015-Apr-23 12:33N 40°39' W 074°02'3 2.9
2015-Apr-23 11:34N 40°36' W 074°03'2 0.1
2015-Apr-22 22:34N 40°37' W 074°03'11 9.4
2015-Apr-22 21:22N 40°26' W 074°05'1518.9
2015-Apr-22 20:33N 40°41' W 074°01'5 5.2
2015-Apr-22 19:34N 40°46' W 074°01'0 0.0
2015-Apr-22 18:33N 40°46' W 074°01'0 0.0
2015-Apr-22 17:34N 40°46' W 074°01'0 0.0
2015-Apr-22 16:33N 40°46' W 074°01'0 0.0
2015-Apr-22 15:33N 40°46' W 074°01'0 0.0
2015-Apr-22 14:33N 40°46' W 074°01'0 0.0
2015-Apr-22 13:33N 40°46' W 074°01'1010.0
2015-Apr-22 12:34N 40°36' W 074°03'2 2.1
2015-Apr-22 11:34N 40°39' W 074°02'2 0.1
2015-Apr-21 22:34N 40°37' W 074°03'7 6.8
2015-Apr-21 21:31N 40°30' W 074°04'1212.9
2015-Apr-21 20:34N 40°42' W 074°01'4 4.4
2015-Apr-21 19:33N 40°46' W 074°01'0 0.0
2015-Apr-21 18:33N 40°46' W 074°01'0 0.0
2015-Apr-21 17:33N 40°46' W 074°01'0 0.0
2015-Apr-21 16:33N 40°46' W 074°01'0 0.0
2015-Apr-21 15:33N 40°46' W 074°01'3 3.5
2015-Apr-21 14:33N 40°43' W 074°02'12 9.2
2015-Apr-21 13:18N 40°31' W 074°03'811.1
2015-Apr-21 12:34N 40°39' W 074°02'4 3.6
2015-Apr-21 11:33N 40°36' W 074°03'1 0.1
2015-Apr-20 22:33N 40°37' W 074°03'8 7.6
2015-Apr-20 21:29N 40°29' W 074°04'1313.6
2015-Apr-20 20:34N 40°42' W 074°00'5 4.7
2015-Apr-20 19:33N 40°46' W 074°01'0 0.0
2015-Apr-20 18:33N 40°46' W 074°01'0 0.0
2015-Apr-20 17:33N 40°46' W 074°01'0 0.0
2015-Apr-20 16:33N 40°46' W 074°01'0 0.0
2015-Apr-20 15:33N 40°46' W 074°01'0 0.0
2015-Apr-20 14:33N 40°46' W 074°01'0 0.0
2015-Apr-20 13:33N 40°46' W 074°01'1513.7
2015-Apr-20 12:27N 40°31' W 074°04'7 7.6
2015-Apr-20 11:34N 40°38' W 074°03'  
2015-Apr-17 22:33N 40°35' W 074°03'  

Dump ship's entire track history